ΕΜΥ, Εθνική Μετεωρολογική Υπηρεσία - Δελτία Καιρού, Προγνώσεις

ΑΕΡΟΝΑΥΤΙΛΙΑ

GREEK AIRPORTS CODES

LGAV 060120Z 11006KT 9999 FEW030 19/15 Q1008 RMK FEW100 BKN180 NOSIG=

EUROPEAN AIRPORTS CODES

TAF LGAV 052300Z 0600/0624 16012KT 9999 SCT020 TEMPO 0600/0612 16012G30KT PROB30 TEMPO 0600/0615 5000 RA FEW018TCU BKN020=